createdAt,value
2018-12-25T00:00:44.328Z,98.90
2018-12-25T00:03:24.665Z,99.00
2018-12-25T00:06:03.467Z,98.60
2018-12-25T00:08:51.310Z,98.70
2018-12-25T00:11:39.180Z,98.70
2018-12-25T00:14:27.080Z,99.10
2018-12-25T00:17:14.949Z,98.70
2018-12-25T00:20:02.780Z,98.50
2018-12-25T00:22:50.647Z,98.50
2018-12-25T00:25:38.479Z,98.60
2018-12-25T00:28:26.345Z,98.50
2018-12-25T00:31:14.186Z,98.40
2018-12-25T00:34:02.057Z,98.20
2018-12-25T00:39:56.791Z,98.00
2018-12-25T00:42:44.630Z,98.00
2018-12-25T00:48:27.662Z,98.10
2018-12-25T00:51:15.595Z,98.10
2018-12-25T00:54:05.117Z,98.10
2018-12-25T00:56:45.463Z,98.10
2018-12-25T00:59:25.995Z,98.30
2018-12-25T01:02:07.199Z,98.20
2018-12-25T01:04:47.842Z,98.00
2018-12-25T01:07:28.564Z,98.00
2018-12-25T01:10:09.770Z,98.00
2018-12-25T01:12:50.919Z,98.10
2018-12-25T01:15:31.750Z,98.10
2018-12-25T01:18:12.022Z,98.20
2018-12-25T01:20:53.276Z,98.20
2018-12-25T01:23:34.281Z,98.20
2018-12-25T01:26:15.321Z,98.00
2018-12-25T01:28:55.961Z,98.10
2018-12-25T01:31:36.393Z,97.90
2018-12-25T01:34:16.937Z,97.90
2018-12-25T01:36:57.333Z,97.80
2018-12-25T01:39:37.978Z,97.90
2018-12-25T01:42:18.836Z,98.00
2018-12-25T01:44:59.385Z,98.00
2018-12-25T01:47:40.337Z,98.00
2018-12-25T01:50:21.203Z,98.10
2018-12-25T01:53:02.106Z,98.00
2018-12-25T01:55:40.886Z,97.90
2018-12-25T01:58:28.751Z,97.80
2018-12-25T02:01:16.586Z,97.90
2018-12-25T02:04:04.455Z,97.90
2018-12-25T02:06:52.288Z,97.80
2018-12-25T02:09:40.181Z,97.80
2018-12-25T02:12:28.085Z,97.80
2018-12-25T02:15:15.921Z,97.70
2018-12-25T02:18:03.784Z,97.90
2018-12-25T02:20:51.623Z,98.00
2018-12-25T02:23:39.493Z,97.80
2018-12-25T02:26:27.337Z,97.90
2018-12-25T02:29:15.203Z,97.90
2018-12-25T02:32:03.043Z,98.00
2018-12-25T02:34:50.912Z,98.20
2018-12-25T02:37:38.755Z,97.80
2018-12-25T02:40:27.537Z,97.80
2018-12-25T02:42:56.028Z,97.70
2018-12-25T02:45:24.528Z,97.90
2018-12-25T02:48:12.378Z,97.80
2018-12-25T02:51:00.257Z,97.80
2018-12-25T02:53:48.102Z,97.80
2018-12-25T02:56:35.967Z,97.70
2018-12-25T02:59:16.277Z,97.70
2018-12-25T03:01:57.499Z,97.80
2018-12-25T03:04:38.538Z,97.90
2018-12-25T03:07:19.138Z,97.90
2018-12-25T03:09:59.705Z,98.00
2018-12-25T03:12:40.366Z,98.10
2018-12-25T03:15:21.496Z,98.00
2018-12-25T03:18:01.791Z,98.40
2018-12-25T03:20:42.045Z,98.10
2018-12-25T03:23:22.350Z,98.10
2018-12-25T03:26:03.199Z,98.00
2018-12-25T03:28:44.041Z,97.90
2018-12-25T03:31:24.951Z,97.70
2018-12-25T03:34:05.376Z,97.70
2018-12-25T03:36:46.400Z,97.70
2018-12-25T03:39:26.918Z,97.60
2018-12-25T03:42:07.672Z,97.40
2018-12-25T03:44:48.034Z,97.30
2018-12-25T03:47:29.050Z,97.30
2018-12-25T03:50:11.116Z,97.30
2018-12-25T03:52:52.073Z,97.30
2018-12-25T03:55:32.738Z,97.40
2018-12-25T03:58:13.067Z,97.40
2018-12-25T04:00:53.439Z,97.30
2018-12-25T04:03:33.777Z,97.30
2018-12-25T04:06:15.006Z,97.30
2018-12-25T04:08:55.480Z,97.30
2018-12-25T04:11:36.110Z,97.10
2018-12-25T04:14:16.610Z,97.10
2018-12-25T04:16:57.552Z,97.00
2018-12-25T04:19:38.639Z,97.00
2018-12-25T04:22:19.613Z,97.00
2018-12-25T04:25:00.007Z,97.10
2018-12-25T04:27:40.322Z,97.00
2018-12-25T04:30:19.245Z,96.90
2018-12-25T04:33:07.090Z,96.70
2018-12-25T04:35:54.958Z,96.60
2018-12-25T04:38:42.792Z,96.50
2018-12-25T04:41:30.657Z,96.50
2018-12-25T04:44:18.485Z,96.60
2018-12-25T04:46:59.582Z,96.70
2018-12-25T04:49:40.270Z,96.70
2018-12-25T04:52:21.306Z,96.80
2018-12-25T04:55:01.637Z,96.80
2018-12-25T04:57:42.555Z,96.80
2018-12-25T05:00:23.705Z,96.90
2018-12-25T05:03:04.021Z,96.90
2018-12-25T05:05:45.063Z,96.80
2018-12-25T05:08:25.331Z,96.80
2018-12-25T05:11:06.345Z,96.80
2018-12-25T05:13:47.538Z,96.70
2018-12-25T05:16:28.250Z,96.70
2018-12-25T05:19:07.126Z,96.70
2018-12-25T05:24:48.333Z,96.80
2018-12-25T05:27:36.207Z,96.40
2018-12-25T05:30:24.041Z,96.30
2018-12-25T05:33:11.913Z,96.20
2018-12-25T05:35:59.745Z,96.20
2018-12-25T05:38:47.597Z,96.20
2018-12-25T05:41:35.437Z,96.10
2018-12-25T05:44:23.317Z,96.00
2018-12-25T05:47:11.149Z,95.90
2018-12-25T05:49:59.002Z,96.10
2018-12-25T05:52:46.893Z,96.20
2018-12-25T05:55:34.729Z,96.30
2018-12-25T05:58:22.595Z,96.30
2018-12-25T06:01:10.434Z,96.30
2018-12-25T06:03:58.304Z,96.50
2018-12-25T06:06:46.145Z,96.50
2018-12-25T06:09:34.013Z,96.60
2018-12-25T06:12:21.839Z,96.60
2018-12-25T06:15:09.714Z,96.60
2018-12-25T06:17:57.550Z,96.60
2018-12-25T06:20:38.083Z,96.60
2018-12-25T06:23:16.942Z,96.60
2018-12-25T06:26:04.809Z,96.60
2018-12-25T06:28:52.651Z,96.70
2018-12-25T06:31:40.510Z,96.70
2018-12-25T06:34:28.341Z,96.70
2018-12-25T06:37:16.209Z,96.60
2018-12-25T06:40:04.713Z,96.60
2018-12-25T06:42:52.569Z,96.60
2018-12-25T06:45:40.409Z,96.50
2018-12-25T06:48:28.273Z,96.40
2018-12-25T06:51:16.109Z,96.50
2018-12-25T06:59:51.493Z,96.50
2018-12-25T07:02:39.332Z,96.40
2018-12-25T07:08:21.005Z,96.40
2018-12-25T07:11:08.874Z,96.40
2018-12-25T07:13:56.706Z,96.40
2018-12-25T07:16:44.572Z,96.40
2018-12-25T07:22:32.589Z,96.10
2018-12-25T07:25:13.345Z,96.00
2018-12-25T07:27:53.997Z,95.90
2018-12-25T07:30:35.130Z,95.90
2018-12-25T07:33:03.657Z,95.80
2018-12-25T07:35:51.486Z,95.90
2018-12-25T07:38:39.335Z,95.80
2018-12-25T07:41:27.188Z,95.70
2018-12-25T07:44:15.021Z,95.90
2018-12-25T07:47:02.873Z,96.10
2018-12-25T07:49:50.701Z,96.20
2018-12-25T07:55:31.625Z,96.20
2018-12-25T08:01:13.009Z,96.20
2018-12-25T08:04:00.853Z,96.20
2018-12-25T08:09:42.118Z,96.30
2018-12-25T08:15:23.329Z,96.20
2018-12-25T08:18:11.175Z,96.20
2018-12-25T08:20:59.025Z,96.10
2018-12-25T08:23:27.525Z,96.10
2018-12-25T08:26:15.665Z,96.10
2018-12-25T08:29:03.512Z,96.00
2018-12-25T08:31:51.373Z,95.90
2018-12-25T08:34:19.870Z,95.80
2018-12-25T08:36:48.369Z,95.70
2018-12-25T08:39:36.233Z,95.70
2018-12-25T08:42:24.069Z,96.00
2018-12-25T08:45:11.930Z,95.80
2018-12-25T08:47:59.833Z,95.70
2018-12-25T08:53:54.617Z,95.40
2018-12-25T08:56:42.456Z,95.30
2018-12-25T08:59:30.320Z,95.10
2018-12-25T09:05:25.273Z,94.90
2018-12-25T09:08:13.111Z,95.10
2018-12-25T09:11:00.968Z,94.50
2018-12-25T09:13:29.460Z,94.30
2018-12-25T09:15:57.948Z,94.10
2018-12-25T09:18:26.473Z,93.90
2018-12-25T09:23:48.801Z,93.70
2018-12-25T09:26:17.324Z,93.60
2018-12-25T09:28:45.814Z,93.50
2018-12-25T09:31:33.671Z,93.30
2018-12-25T09:34:21.486Z,93.20
2018-12-25T09:37:02.830Z,93.10
2018-12-25T09:39:31.332Z,93.10
2018-12-25T09:41:59.846Z,93.00
2018-12-25T09:44:47.853Z,93.10
2018-12-25T09:47:16.366Z,93.00
2018-12-25T09:50:04.268Z,92.70
2018-12-25T09:52:52.245Z,92.80
2018-12-25T09:55:40.085Z,92.70
2018-12-25T09:58:27.957Z,92.50
2018-12-25T10:07:16.694Z,92.00
2018-12-25T10:10:25.297Z,91.90
2018-12-25T10:13:13.132Z,91.70
2018-12-25T10:16:01.001Z,91.80
2018-12-25T10:22:02.777Z,91.90
2018-12-25T10:28:21.717Z,91.40
2018-12-25T10:31:02.753Z,90.70
2018-12-25T10:33:43.541Z,90.10
2018-12-25T10:36:24.253Z,89.50
2018-12-25T10:39:04.437Z,89.10
2018-12-25T10:41:45.421Z,88.20
2018-12-25T10:44:26.173Z,88.50
2018-12-25T10:47:06.393Z,88.10
2018-12-25T10:49:47.041Z,87.40
2018-12-25T10:52:27.345Z,87.50
2018-12-25T10:55:07.973Z,87.60
2018-12-25T10:57:48.677Z,87.80
2018-12-25T11:00:29.634Z,87.30
2018-12-25T11:03:10.108Z,87.20
2018-12-25T11:05:50.704Z,86.90
2018-12-25T11:08:31.425Z,87.20
2018-12-25T11:11:11.713Z,87.40
2018-12-25T11:13:52.535Z,87.50
2018-12-25T11:16:33.214Z,87.70
2018-12-25T11:19:14.221Z,87.10
2018-12-25T11:21:54.893Z,87.00
2018-12-25T11:24:36.105Z,87.00
2018-12-25T11:27:16.440Z,86.70
2018-12-25T11:29:57.281Z,86.50
2018-12-25T11:32:37.484Z,86.70
2018-12-25T11:35:18.544Z,86.20
2018-12-25T11:37:59.034Z,86.40
2018-12-25T11:40:39.440Z,86.30
2018-12-25T11:43:20.264Z,86.10
2018-12-25T11:46:00.645Z,85.80
2018-12-25T11:48:40.894Z,85.20
2018-12-25T11:51:21.509Z,84.60
2018-12-25T11:54:02.295Z,85.00
2018-12-25T11:56:43.449Z,84.90
2018-12-25T11:59:24.085Z,84.70
2018-12-25T12:02:04.293Z,84.20
2018-12-25T12:04:45.157Z,84.10
2018-12-25T12:07:25.459Z,83.70
2018-12-25T12:10:06.305Z,83.80
2018-12-25T12:12:46.973Z,84.00
2018-12-25T12:15:27.165Z,83.00
2018-12-25T12:18:08.021Z,82.40
2018-12-25T12:20:48.489Z,82.60
2018-12-25T12:23:29.329Z,82.40
2018-12-25T12:26:09.803Z,82.30
2018-12-25T12:28:51.078Z,81.80
2018-12-25T12:31:31.904Z,82.20
2018-12-25T12:34:00.344Z,82.20
2018-12-25T12:39:54.989Z,82.60
2018-12-25T12:42:42.718Z,83.10
2018-12-25T12:48:24.492Z,82.60
2018-12-25T12:51:12.260Z,81.80
2018-12-25T12:54:00.029Z,81.10
2018-12-25T12:59:41.210Z,80.00
2018-12-25T13:02:28.946Z,79.20
2018-12-25T13:05:16.713Z,77.30
2018-12-25T13:08:04.485Z,74.60
2018-12-25T13:10:52.217Z,73.20
2018-12-25T13:13:39.976Z,72.50
2018-12-25T13:16:27.704Z,74.40
2018-12-25T13:19:15.465Z,75.60
2018-12-25T13:22:03.241Z,76.00
2018-12-25T13:24:50.960Z,75.90
2018-12-25T13:27:38.733Z,76.40
2018-12-25T13:30:26.805Z,76.90
2018-12-25T13:33:14.721Z,77.30
2018-12-25T13:35:54.996Z,77.00
2018-12-25T13:38:35.572Z,78.00
2018-12-25T13:41:16.022Z,77.40
2018-12-25T13:43:56.945Z,77.90
2018-12-25T13:46:37.793Z,77.60
2018-12-25T13:49:18.547Z,77.50
2018-12-25T13:51:59.046Z,78.20
2018-12-25T13:54:40.173Z,78.70
2018-12-25T13:57:20.505Z,78.30
2018-12-25T14:00:01.561Z,78.60
2018-12-25T14:02:42.230Z,78.90
2018-12-25T14:05:22.750Z,79.20
2018-12-25T14:08:01.493Z,78.30
2018-12-25T14:10:49.268Z,78.40
2018-12-25T14:13:36.996Z,77.20
2018-12-25T14:16:24.772Z,77.80
2018-12-25T14:24:59.185Z,77.10
2018-12-25T14:27:46.916Z,77.00
2018-12-25T14:33:28.180Z,75.90
2018-12-25T14:36:15.909Z,77.00
2018-12-25T14:39:24.402Z,77.40
2018-12-25T14:42:12.141Z,78.30
2018-12-25T14:44:59.908Z,78.90
2018-12-25T14:47:47.651Z,77.70
2018-12-25T14:53:28.709Z,76.60
2018-12-25T14:56:16.437Z,75.60
2018-12-25T14:59:04.223Z,75.20
2018-12-25T15:01:51.948Z,75.80
2018-12-25T15:04:39.727Z,77.20
2018-12-25T15:07:27.461Z,78.50
2018-12-25T15:10:08.217Z,77.60
2018-12-25T15:12:48.933Z,79.00
2018-12-25T15:15:29.505Z,78.10
2018-12-25T15:18:10.392Z,77.90
2018-12-25T15:20:50.676Z,78.50
2018-12-25T15:23:31.748Z,79.30
2018-12-25T15:26:12.141Z,79.40
2018-12-25T15:28:53.081Z,79.50
2018-12-25T15:31:33.850Z,79.90
2018-12-25T15:34:14.374Z,80.50
2018-12-25T15:36:54.609Z,80.80
2018-12-25T15:39:35.537Z,81.20
2018-12-25T15:42:16.157Z,81.70
2018-12-25T15:44:57.037Z,82.00
2018-12-25T15:47:37.297Z,81.80
2018-12-25T15:50:17.841Z,81.70
2018-12-25T15:52:58.624Z,82.30
2018-12-25T15:55:38.893Z,83.10
2018-12-25T15:58:19.677Z,81.90
2018-12-25T16:00:59.930Z,82.80
2018-12-25T16:03:40.763Z,81.70
2018-12-25T16:06:21.474Z,81.60
2018-12-25T16:09:01.942Z,81.30
2018-12-25T16:11:42.389Z,81.90
2018-12-25T16:14:22.992Z,82.30
2018-12-25T16:17:03.612Z,82.90
2018-12-25T16:19:44.228Z,83.60
2018-12-25T16:22:25.345Z,83.70
2018-12-25T16:25:06.104Z,83.60
2018-12-25T16:27:46.625Z,84.00
2018-12-25T16:30:27.721Z,84.90
2018-12-25T16:33:07.885Z,85.60
2018-12-25T16:35:48.497Z,84.80
2018-12-25T16:38:29.489Z,84.50
2018-12-25T16:41:09.993Z,84.00
2018-12-25T16:43:51.074Z,84.40
2018-12-25T16:46:32.047Z,84.90
2018-12-25T16:49:12.905Z,85.40
2018-12-25T16:51:53.797Z,85.30
2018-12-25T16:54:34.545Z,85.70
2018-12-25T16:57:14.984Z,86.80
2018-12-25T16:59:55.946Z,86.20
2018-12-25T17:02:36.390Z,86.50
2018-12-25T17:05:17.053Z,86.80
2018-12-25T17:07:57.626Z,87.10
2018-12-25T17:10:38.533Z,87.70
2018-12-25T17:13:19.261Z,88.00
2018-12-25T17:15:59.907Z,88.40
2018-12-25T17:18:40.453Z,89.10
2018-12-25T17:21:21.038Z,89.50
2018-12-25T17:24:02.304Z,89.80
2018-12-25T17:26:43.074Z,89.90
2018-12-25T17:29:11.501Z,90.00
2018-12-25T17:31:59.237Z,90.00
2018-12-25T17:34:47.006Z,89.90
2018-12-25T17:37:34.740Z,89.60
2018-12-25T17:40:22.504Z,89.80
2018-12-25T17:43:10.273Z,90.00
2018-12-25T17:45:58.000Z,90.20
2018-12-25T17:48:45.784Z,90.00
2018-12-25T17:51:33.516Z,90.30
2018-12-25T17:54:21.280Z,90.40
2018-12-25T17:57:09.056Z,90.80
2018-12-25T17:59:56.795Z,91.30
2018-12-25T18:02:44.562Z,91.30
2018-12-25T18:05:32.291Z,91.60
2018-12-25T18:08:20.052Z,91.90
2018-12-25T18:11:00.821Z,91.80
2018-12-25T18:13:41.544Z,91.80
2018-12-25T18:16:21.824Z,91.90
2018-12-25T18:19:02.973Z,91.70
2018-12-25T18:21:31.373Z,91.80
2018-12-25T18:23:59.789Z,91.80
2018-12-25T18:26:47.551Z,91.80
2018-12-25T18:29:35.281Z,91.80
2018-12-25T18:32:23.040Z,91.70
2018-12-25T18:35:10.773Z,91.80
2018-12-25T18:37:58.561Z,91.90
2018-12-25T18:40:46.299Z,92.10
2018-12-25T18:46:27.885Z,92.30
2018-12-25T18:49:15.658Z,92.40
2018-12-25T18:52:03.385Z,92.20
2018-12-25T18:54:51.153Z,92.60
2018-12-25T18:57:38.885Z,92.50
2018-12-25T19:00:26.804Z,92.80
2018-12-25T19:03:14.539Z,93.10
2018-12-25T19:06:02.306Z,93.50
2018-12-25T19:08:50.036Z,93.60
2018-12-25T19:11:37.820Z,93.90
2018-12-25T19:14:25.555Z,94.10
2018-12-25T19:17:13.317Z,94.30
2018-12-25T19:20:01.085Z,94.40
2018-12-25T19:22:41.533Z,94.60
2018-12-25T19:25:21.850Z,94.80
2018-12-25T19:28:02.533Z,94.90
2018-12-25T19:30:42.951Z,95.10
2018-12-25T19:33:23.974Z,95.30
2018-12-25T19:36:04.588Z,95.40
2018-12-25T19:38:44.986Z,95.60
2018-12-25T19:41:25.697Z,95.50
2018-12-25T19:44:06.589Z,95.80
2018-12-25T19:46:47.320Z,95.90
2018-12-25T19:49:28.066Z,96.10
2018-12-25T19:52:08.296Z,96.20
2018-12-25T19:54:48.727Z,96.40
2018-12-25T19:57:29.133Z,96.20
2018-12-25T20:00:09.497Z,96.20
2018-12-25T20:02:50.082Z,96.40
2018-12-25T20:05:30.504Z,96.50
2018-12-25T20:08:11.374Z,96.50
2018-12-25T20:10:51.704Z,96.60
2018-12-25T20:13:32.240Z,96.70
2018-12-25T20:16:12.482Z,96.90
2018-12-25T20:18:52.910Z,97.10
2018-12-25T20:21:33.361Z,97.10
2018-12-25T20:24:19.377Z,97.20
2018-12-25T20:26:56.898Z,97.00
2018-12-25T20:29:37.292Z,97.10
2018-12-25T20:32:17.469Z,97.00
2018-12-25T20:34:58.469Z,97.20
2018-12-25T20:37:39.551Z,97.40
2018-12-25T20:40:19.774Z,97.50
2018-12-25T20:43:00.489Z,97.60
2018-12-25T20:45:41.269Z,97.70
2018-12-25T20:48:22.018Z,98.00
2018-12-25T20:51:02.972Z,98.00
2018-12-25T20:53:43.557Z,98.10
2018-12-25T20:56:24.083Z,98.50
2018-12-25T20:59:04.785Z,98.20
2018-12-25T21:01:45.041Z,98.20
2018-12-25T21:04:25.921Z,98.30
2018-12-25T21:07:06.400Z,98.30
2018-12-25T21:09:47.313Z,98.10
2018-12-25T21:12:27.511Z,98.30
2018-12-25T21:15:08.395Z,98.40
2018-12-25T21:17:49.245Z,98.50
2018-12-25T21:20:29.733Z,98.70
2018-12-25T21:23:10.362Z,99.00
2018-12-25T21:25:51.104Z,99.00
2018-12-25T21:28:31.479Z,99.10
2018-12-25T21:31:12.585Z,99.30
2018-12-25T21:33:53.205Z,99.20
2018-12-25T21:36:33.517Z,99.00
2018-12-25T21:39:14.461Z,99.00
2018-12-25T21:41:55.114Z,99.00
2018-12-25T21:44:35.792Z,99.00
2018-12-25T21:47:16.497Z,99.00
2018-12-25T21:49:57.512Z,99.10
2018-12-25T21:52:38.679Z,99.10
2018-12-25T21:55:19.095Z,99.30
2018-12-25T21:58:07.033Z,99.30
2018-12-25T22:00:54.777Z,99.20
2018-12-25T22:03:42.613Z,99.40
2018-12-25T22:06:30.358Z,99.30
2018-12-25T22:09:18.121Z,99.30
2018-12-25T22:12:05.858Z,99.30
2018-12-25T22:14:53.628Z,99.20
2018-12-25T22:17:41.365Z,99.30
2018-12-25T22:20:29.137Z,99.30
2018-12-25T22:26:10.376Z,99.20
2018-12-25T22:28:58.113Z,99.30
2018-12-25T22:31:26.545Z,99.20
2018-12-25T22:33:54.940Z,99.50
2018-12-25T22:36:42.725Z,99.40
2018-12-25T22:39:30.452Z,99.40
2018-12-25T22:42:18.217Z,99.60
2018-12-25T22:45:26.697Z,99.90
2018-12-25T22:48:14.465Z,99.90
2018-12-25T22:51:02.200Z,99.90
2018-12-25T22:53:49.969Z,99.90
2018-12-25T22:56:31.018Z,99.90
2018-12-25T22:59:11.733Z,99.90
2018-12-25T23:01:50.761Z,99.90
2018-12-25T23:04:38.520Z,99.90
2018-12-25T23:07:26.266Z,99.90
2018-12-25T23:10:15.757Z,99.90
2018-12-25T23:12:44.163Z,99.90
2018-12-25T23:15:12.561Z,99.90
2018-12-25T23:18:00.321Z,99.90
2018-12-25T23:20:48.054Z,99.90
2018-12-25T23:23:35.827Z,99.90
2018-12-25T23:26:23.561Z,99.90
2018-12-25T23:34:58.880Z,99.90
2018-12-25T23:37:46.691Z,99.90
2018-12-25T23:40:34.421Z,99.90
2018-12-25T23:43:22.176Z,99.90
2018-12-25T23:46:09.909Z,99.90
2018-12-25T23:48:57.665Z,99.90
2018-12-25T23:51:45.422Z,99.90
2018-12-25T23:57:26.304Z,99.90
